createdAt,value
2018-01-08T00:00:33.360Z,34.73
2018-01-08T00:03:00.892Z,27.77
2018-01-08T00:05:28.352Z,35.40
2018-01-08T00:07:55.791Z,34.47
2018-01-08T00:10:23.236Z,30.23
2018-01-08T00:12:50.681Z,30.43
2018-01-08T00:15:18.107Z,29.17
2018-01-08T00:17:45.564Z,28.43
2018-01-08T00:20:13.029Z,33.20
2018-01-08T00:22:40.457Z,32.83
2018-01-08T00:25:07.908Z,30.13
2018-01-08T00:27:35.364Z,33.90
2018-01-08T00:30:02.792Z,32.23
2018-01-08T00:32:31.024Z,32.87
2018-01-08T00:34:58.451Z,29.70
2018-01-08T00:37:25.899Z,32.57
2018-01-08T00:39:53.346Z,31.63
2018-01-08T00:42:20.798Z,29.57
2018-01-08T00:44:48.219Z,33.23
2018-01-08T00:47:15.696Z,34.33
2018-01-08T00:49:43.152Z,33.77
2018-01-08T00:52:10.607Z,33.97
2018-01-08T00:54:38.064Z,30.90
2018-01-08T00:57:05.504Z,30.77
2018-01-08T00:59:33.003Z,35.63
2018-01-08T01:02:00.420Z,31.70
2018-01-08T01:04:27.896Z,34.90
2018-01-08T01:06:55.332Z,32.87
2018-01-08T01:09:22.775Z,31.20
2018-01-08T01:11:50.238Z,34.97
2018-01-08T01:14:17.676Z,29.63
2018-01-08T01:16:45.128Z,32.17
2018-01-08T01:19:12.565Z,31.83
2018-01-08T01:21:40.056Z,33.50
2018-01-08T01:24:07.517Z,31.40
2018-01-08T01:26:34.936Z,33.13
2018-01-08T01:29:02.380Z,36.07
2018-01-08T01:31:30.605Z,33.60
2018-01-08T01:33:58.058Z,30.03
2018-01-08T01:36:25.497Z,38.70
2018-01-08T01:38:52.995Z,37.53
2018-01-08T01:41:20.433Z,36.57
2018-01-08T01:43:47.917Z,39.00
2018-01-08T01:46:15.376Z,35.17
2018-01-08T01:48:42.832Z,35.40
2018-01-08T01:51:10.285Z,35.80
2018-01-08T01:53:37.740Z,36.03
2018-01-08T01:56:05.187Z,38.97
2018-01-08T01:58:32.644Z,37.47
2018-01-08T02:01:00.095Z,37.83
2018-01-08T02:03:27.543Z,38.17
2018-01-08T02:05:55.016Z,37.63
2018-01-08T02:08:22.464Z,33.83
2018-01-08T02:10:49.926Z,36.30
2018-01-08T02:13:17.373Z,37.87
2018-01-08T02:15:44.808Z,39.07
2018-01-08T02:18:12.263Z,32.27
2018-01-08T02:20:39.700Z,37.27
2018-01-08T02:23:07.145Z,37.63
2018-01-08T02:25:34.588Z,36.30
2018-01-08T02:28:02.036Z,30.13
2018-01-08T02:30:29.501Z,33.60
2018-01-08T02:32:56.944Z,35.23
2018-01-08T02:35:24.396Z,32.07
2018-01-08T02:37:51.916Z,33.57
2018-01-08T02:40:19.344Z,36.83
2018-01-08T02:42:46.789Z,31.60
2018-01-08T02:45:14.228Z,35.50
2018-01-08T02:47:41.684Z,37.63
2018-01-08T02:50:09.140Z,32.47
2018-01-08T02:52:36.584Z,33.23
2018-01-08T02:55:04.040Z,36.17
2018-01-08T02:57:31.507Z,37.67
2018-01-08T02:59:59.008Z,34.20
2018-01-08T03:02:26.436Z,37.07
2018-01-08T03:04:53.884Z,35.77
2018-01-08T03:07:21.332Z,36.90
2018-01-08T03:09:48.788Z,34.83
2018-01-08T03:12:16.256Z,34.37
2018-01-08T03:14:43.720Z,35.03
2018-01-08T03:17:11.172Z,39.40
2018-01-08T03:19:38.613Z,38.07
2018-01-08T03:22:06.151Z,37.13
2018-01-08T03:24:33.586Z,36.27
2018-01-08T03:27:01.028Z,37.20
2018-01-08T03:29:28.469Z,35.63
2018-01-08T03:31:55.944Z,34.97
2018-01-08T03:34:23.384Z,34.57
2018-01-08T03:36:50.848Z,35.20
2018-01-08T03:39:18.283Z,34.50
2018-01-08T03:41:45.751Z,31.27
2018-01-08T03:44:13.235Z,27.70
2018-01-08T03:46:41.440Z,34.63
2018-01-08T03:49:08.896Z,29.47
2018-01-08T03:51:36.328Z,33.90
2018-01-08T03:54:04.551Z,32.40
2018-01-08T03:56:31.984Z,34.83
2018-01-08T03:58:59.413Z,32.27
2018-01-08T04:01:27.643Z,28.63
2018-01-08T04:03:55.298Z,35.00
2018-01-08T04:06:22.764Z,35.23
2018-01-08T04:08:50.208Z,34.80
2018-01-08T04:11:17.646Z,35.77
2018-01-08T04:13:45.120Z,34.03
2018-01-08T04:16:12.579Z,28.67
2018-01-08T04:18:40.053Z,36.63
2018-01-08T04:21:07.505Z,33.93
2018-01-08T04:23:34.964Z,31.50
2018-01-08T04:26:02.459Z,33.07
2018-01-08T04:28:29.916Z,30.83
2018-01-08T04:30:57.352Z,30.90
2018-01-08T04:33:24.803Z,33.20
2018-01-08T04:35:52.264Z,31.50
2018-01-08T04:38:20.002Z,29.03
2018-01-08T04:40:47.457Z,34.27
2018-01-08T04:43:14.878Z,35.80
2018-01-08T04:45:42.385Z,34.00
2018-01-08T04:48:09.836Z,33.30
2018-01-08T04:50:37.300Z,30.70
2018-01-08T04:53:04.749Z,30.30
2018-01-08T04:55:32.508Z,33.57
2018-01-08T04:57:59.965Z,31.73
2018-01-08T05:00:27.405Z,33.17
2018-01-08T05:02:54.866Z,28.97
2018-01-08T05:05:22.312Z,35.90
2018-01-08T05:07:49.768Z,35.23
2018-01-08T05:10:17.208Z,30.47
2018-01-08T05:12:45.427Z,29.50
2018-01-08T05:15:12.883Z,49.47
2018-01-08T05:17:41.340Z,26.67
2018-01-08T05:20:08.768Z,29.00
2018-01-08T05:22:36.226Z,31.23
2018-01-08T05:25:03.676Z,27.40
2018-01-08T05:27:31.103Z,33.00
2018-01-08T05:29:58.562Z,28.37
2018-01-08T05:32:26.020Z,25.83
2018-01-08T05:34:53.475Z,31.83
2018-01-08T05:37:20.941Z,34.77
2018-01-08T05:39:48.413Z,27.73
2018-01-08T05:42:16.072Z,26.80
2018-01-08T05:44:43.528Z,27.07
2018-01-08T05:47:11.190Z,29.67
2018-01-08T05:49:38.620Z,30.07
2018-01-08T05:52:06.081Z,28.63
2018-01-08T05:54:33.728Z,26.57
2018-01-08T05:57:01.160Z,26.27
2018-01-08T05:59:28.604Z,28.63
2018-01-08T06:01:56.044Z,28.47
2018-01-08T06:04:23.488Z,28.37
2018-01-08T06:06:50.948Z,30.30
2018-01-08T06:09:18.412Z,28.30
2018-01-08T06:11:45.847Z,25.30
2018-01-08T06:14:13.300Z,26.67
2018-01-08T06:16:40.851Z,30.50
2018-01-08T06:19:08.233Z,28.07
2018-01-08T06:21:35.688Z,29.53
2018-01-08T06:24:03.126Z,29.37
2018-01-08T06:26:30.571Z,27.20
2018-01-08T06:28:58.128Z,27.33
2018-01-08T06:31:25.566Z,29.73
2018-01-08T06:33:53.023Z,30.20
2018-01-08T06:36:20.461Z,29.60
2018-01-08T06:38:47.915Z,25.93
2018-01-08T06:41:15.368Z,27.90
2018-01-08T06:43:42.801Z,27.87
2018-01-08T06:46:10.257Z,32.10
2018-01-08T06:48:37.708Z,29.67
2018-01-08T06:51:05.156Z,30.13
2018-01-08T06:53:32.652Z,31.80
2018-01-08T06:56:00.136Z,32.07
2018-01-08T06:58:28.347Z,30.57
2018-01-08T07:00:55.973Z,27.20
2018-01-08T07:03:23.414Z,29.23
2018-01-08T07:05:50.851Z,23.00
2018-01-08T07:08:18.288Z,27.43
2018-01-08T07:10:45.743Z,28.77
2018-01-08T07:13:13.184Z,30.17
2018-01-08T07:15:40.648Z,25.10
2018-01-08T07:18:08.072Z,27.33
2018-01-08T07:20:35.537Z,33.37
2018-01-08T07:23:03.088Z,29.80
2018-01-08T07:25:30.565Z,29.93
2018-01-08T07:27:57.993Z,29.30
2018-01-08T07:30:25.453Z,30.00
2018-01-08T07:32:52.936Z,25.03
2018-01-08T07:35:20.394Z,30.10
2018-01-08T07:37:47.839Z,26.20
2018-01-08T07:40:15.309Z,30.87
2018-01-08T07:42:42.764Z,29.10
2018-01-08T07:45:10.220Z,26.17
2018-01-08T07:47:37.680Z,24.70
2018-01-08T07:50:05.136Z,27.40
2018-01-08T07:52:32.584Z,30.73
2018-01-08T07:55:00.058Z,28.43
2018-01-08T07:57:27.712Z,21.43
2018-01-08T07:59:55.156Z,25.40
2018-01-08T08:02:22.630Z,26.47
2018-01-08T08:04:50.060Z,24.10
2018-01-08T08:07:18.245Z,24.80
2018-01-08T08:09:45.957Z,24.53
2018-01-08T08:12:13.416Z,23.53
2018-01-08T08:14:40.872Z,28.73
2018-01-08T08:17:08.304Z,33.53
2018-01-08T08:19:35.769Z,26.30
2018-01-08T08:22:03.512Z,24.47
2018-01-08T08:24:30.938Z,24.87
2018-01-08T08:26:59.160Z,27.20
2018-01-08T08:29:26.634Z,25.57
2018-01-08T08:31:54.162Z,25.67
2018-01-08T08:34:21.616Z,26.43
2018-01-08T08:36:49.044Z,23.20
2018-01-08T08:39:16.572Z,23.53
2018-01-08T08:41:45.027Z,32.13
2018-01-08T08:44:12.469Z,24.77
2018-01-08T08:46:40.241Z,24.40
2018-01-08T08:49:07.809Z,24.77
2018-01-08T08:51:35.278Z,25.87
2018-01-08T08:54:02.773Z,24.10
2018-01-08T08:56:30.992Z,28.97
2018-01-08T08:58:59.614Z,24.43
2018-01-08T09:01:27.094Z,25.23
2018-01-08T09:03:55.317Z,29.37
2018-01-08T09:06:22.755Z,24.00
2018-01-08T09:08:50.212Z,24.07
2018-01-08T09:11:17.670Z,26.30
2018-01-08T09:13:45.112Z,25.50
2018-01-08T09:16:14.001Z,25.60
2018-01-08T09:18:42.121Z,23.57
2018-01-08T09:21:09.624Z,26.30
2018-01-08T09:23:37.106Z,22.27
2018-01-08T09:26:04.534Z,26.33
2018-01-08T09:28:32.020Z,26.60
2018-01-08T09:30:59.524Z,26.80
2018-01-08T09:33:26.980Z,22.77
2018-01-08T09:35:54.957Z,34.33
2018-01-08T09:38:22.472Z,27.40
2018-01-08T09:40:49.993Z,25.30
2018-01-08T09:43:17.589Z,25.63
2018-01-08T09:45:45.033Z,19.17
2018-01-08T09:48:12.489Z,19.83
2018-01-08T09:50:39.939Z,26.07
2018-01-08T09:53:07.392Z,22.57
2018-01-08T09:55:34.956Z,22.90
2018-01-08T09:58:02.533Z,24.43
2018-01-08T10:00:30.005Z,23.53
2018-01-08T10:03:09.274Z,21.37
2018-01-08T10:05:48.592Z,19.20
2018-01-08T10:08:27.911Z,21.03
2018-01-08T10:11:08.005Z,19.13
2018-01-08T10:13:47.289Z,18.80
2018-01-08T10:16:26.701Z,21.00
2018-01-08T10:19:06.372Z,22.03
2018-01-08T10:21:34.429Z,19.97
2018-01-08T10:24:01.888Z,22.33
2018-01-08T10:26:29.323Z,21.50
2018-01-08T10:28:56.789Z,22.50
2018-01-08T10:31:24.220Z,20.17
2018-01-08T10:33:51.725Z,19.90
2018-01-08T10:36:19.398Z,22.70
2018-01-08T10:38:46.816Z,20.73
2018-01-08T10:41:13.879Z,21.40
2018-01-08T10:43:46.872Z,16.93
2018-01-08T10:46:20.046Z,20.20
2018-01-08T10:48:53.060Z,19.77
2018-01-08T10:51:26.246Z,18.57
2018-01-08T10:53:54.389Z,18.67
2018-01-08T10:56:22.094Z,19.07
2018-01-08T10:58:49.532Z,20.70
2018-01-08T11:01:22.573Z,18.93
2018-01-08T11:03:56.523Z,18.63
2018-01-08T11:06:23.966Z,18.17
2018-01-08T11:08:51.428Z,15.63
2018-01-08T11:11:18.999Z,18.57
2018-01-08T11:13:46.466Z,18.90
2018-01-08T11:16:14.452Z,19.60
2018-01-08T11:18:42.073Z,17.97
2018-01-08T11:21:09.574Z,21.13
2018-01-08T11:23:37.017Z,16.40
2018-01-08T11:26:04.465Z,19.27
2018-01-08T11:28:31.916Z,17.60
2018-01-08T11:30:59.373Z,17.43
2018-01-08T11:33:26.832Z,17.33
2018-01-08T11:35:54.493Z,19.60
2018-01-08T11:38:21.948Z,18.30
2018-01-08T11:40:49.493Z,22.93
2018-01-08T11:43:17.200Z,18.73
2018-01-08T11:45:44.629Z,18.57
2018-01-08T11:48:12.082Z,18.70
2018-01-08T11:50:39.543Z,19.10
2018-01-08T11:53:06.997Z,18.60
2018-01-08T11:55:34.440Z,17.03
2018-01-08T11:58:01.911Z,16.80
2018-01-08T12:00:29.419Z,17.53
2018-01-08T12:02:56.912Z,17.97
2018-01-08T12:05:24.370Z,18.17
2018-01-08T12:07:51.949Z,17.70
2018-01-08T12:10:19.367Z,19.63
2018-01-08T12:12:46.962Z,19.70
2018-01-08T12:15:14.417Z,17.40
2018-01-08T12:17:41.833Z,16.47
2018-01-08T12:20:10.058Z,18.83
2018-01-08T12:22:37.554Z,19.47
2018-01-08T12:25:04.998Z,16.33
2018-01-08T12:27:32.461Z,17.10
2018-01-08T12:29:59.928Z,15.33
2018-01-08T12:32:27.539Z,15.20
2018-01-08T12:34:54.976Z,18.93
2018-01-08T12:37:22.417Z,18.47
2018-01-08T12:39:50.678Z,18.50
2018-01-08T12:42:18.095Z,16.37
2018-01-08T12:44:45.549Z,15.77
2018-01-08T12:47:13.027Z,16.40
2018-01-08T12:49:40.477Z,16.57
2018-01-08T12:52:07.957Z,14.30
2018-01-08T12:54:35.419Z,16.60
2018-01-08T12:57:02.870Z,13.80
2018-01-08T12:59:30.326Z,15.67
2018-01-08T13:01:57.766Z,22.83
2018-01-08T13:04:26.064Z,17.23
2018-01-08T13:06:53.731Z,14.57
2018-01-08T13:09:21.180Z,14.10
2018-01-08T13:11:48.652Z,13.93
2018-01-08T13:14:16.856Z,14.60
2018-01-08T13:16:44.308Z,15.50
2018-01-08T13:19:11.757Z,14.10
2018-01-08T13:21:39.198Z,14.80
2018-01-08T13:24:07.705Z,13.30
2018-01-08T13:26:35.136Z,16.10
2018-01-08T13:29:02.589Z,14.33
2018-01-08T13:31:30.815Z,12.93
2018-01-08T13:33:58.273Z,14.40
2018-01-08T13:36:25.722Z,13.37
2018-01-08T13:38:53.152Z,15.83
2018-01-08T13:41:20.667Z,14.43
2018-01-08T13:43:48.061Z,19.03
2018-01-08T13:46:15.516Z,14.40
2018-01-08T13:48:43.932Z,16.77
2018-01-08T13:51:11.488Z,12.37
2018-01-08T13:53:38.950Z,13.10
2018-01-08T13:56:06.392Z,13.47
2018-01-08T13:58:33.825Z,15.43
2018-01-08T14:01:01.276Z,17.20
2018-01-08T14:03:29.485Z,13.17
2018-01-08T14:05:56.941Z,15.17
2018-01-08T14:08:24.368Z,13.33
2018-01-08T14:10:52.357Z,13.93
2018-01-08T14:13:19.809Z,13.47
2018-01-08T14:15:47.253Z,12.20
2018-01-08T14:18:14.742Z,13.10
2018-01-08T14:20:42.156Z,20.73
2018-01-08T14:23:10.374Z,15.57
2018-01-08T14:25:37.826Z,33.63
2018-01-08T14:28:05.273Z,21.80
2018-01-08T14:30:32.848Z,41.90
2018-01-08T14:33:00.268Z,16.03
2018-01-08T14:35:28.684Z,14.70
2018-01-08T14:37:56.140Z,18.67
2018-01-08T14:40:23.597Z,13.30
2018-01-08T14:42:51.061Z,13.03
2018-01-08T14:45:18.818Z,15.03
2018-01-08T14:47:46.228Z,13.50
2018-01-08T14:50:14.456Z,13.93
2018-01-08T14:52:41.884Z,12.20
2018-01-08T14:55:09.340Z,12.77
2018-01-08T14:57:36.796Z,12.90
2018-01-08T15:00:04.224Z,15.07
2018-01-08T15:02:31.676Z,13.63
2018-01-08T15:04:59.338Z,12.83
2018-01-08T15:07:26.791Z,13.77
2018-01-08T15:09:54.250Z,12.80
2018-01-08T15:12:21.716Z,12.47
2018-01-08T15:14:49.930Z,15.40
2018-01-08T15:17:17.405Z,12.63
2018-01-08T15:19:44.861Z,14.07
2018-01-08T15:22:12.296Z,13.90
2018-01-08T15:24:39.980Z,15.30
2018-01-08T15:27:07.434Z,11.57
2018-01-08T15:29:34.878Z,12.43
2018-01-08T15:32:02.348Z,13.33
2018-01-08T15:34:29.748Z,10.27
2018-01-08T15:36:57.213Z,13.93
2018-01-08T15:39:25.428Z,13.67
2018-01-08T15:41:52.844Z,13.07
2018-01-08T15:44:20.301Z,13.70
2018-01-08T15:46:47.746Z,12.27
2018-01-08T15:49:15.198Z,12.43
2018-01-08T15:51:42.653Z,11.50
2018-01-08T15:54:10.098Z,16.97
2018-01-08T15:56:37.549Z,10.40
2018-01-08T15:59:05.006Z,14.77
2018-01-08T16:01:32.493Z,12.87
2018-01-08T16:03:59.981Z,13.27
2018-01-08T16:06:27.420Z,12.00
2018-01-08T16:08:55.644Z,11.17
2018-01-08T16:11:23.097Z,12.40
2018-01-08T16:13:50.524Z,10.57
2018-01-08T16:16:17.972Z,11.63
2018-01-08T16:18:45.440Z,13.17
2018-01-08T16:21:12.889Z,12.50
2018-01-08T16:23:40.341Z,11.50
2018-01-08T16:26:07.778Z,11.67
2018-01-08T16:28:35.252Z,11.60
2018-01-08T16:31:03.473Z,17.13
2018-01-08T16:33:30.925Z,11.83
2018-01-08T16:35:58.382Z,13.97
2018-01-08T16:38:25.816Z,12.77
2018-01-08T16:40:53.292Z,12.87
2018-01-08T16:43:20.720Z,12.60
2018-01-08T16:45:48.147Z,12.67
2018-01-08T16:48:15.732Z,13.17
2018-01-08T16:50:43.184Z,10.43
2018-01-08T16:53:10.636Z,11.93
2018-01-08T16:55:38.097Z,14.10
2018-01-08T16:58:05.529Z,11.60
2018-01-08T17:00:32.973Z,12.57
2018-01-08T17:03:00.453Z,13.97
2018-01-08T17:05:27.909Z,11.33
2018-01-08T17:07:55.362Z,16.80
2018-01-08T17:10:22.817Z,11.97
2018-01-08T17:12:50.247Z,11.90
2018-01-08T17:15:17.700Z,11.60
2018-01-08T17:17:45.134Z,11.07
2018-01-08T17:20:12.617Z,12.70
2018-01-08T17:22:40.780Z,14.80
2018-01-08T17:25:08.429Z,12.90
2018-01-08T17:27:35.898Z,11.20
2018-01-08T17:30:03.430Z,13.70
2018-01-08T17:32:30.876Z,11.57
2018-01-08T17:34:58.371Z,11.67
2018-01-08T17:37:25.796Z,12.70
2018-01-08T17:39:53.996Z,10.73
2018-01-08T17:42:21.445Z,10.17
2018-01-08T17:44:49.021Z,11.23
2018-01-08T17:47:16.432Z,12.70
2018-01-08T17:49:44.629Z,14.40
2018-01-08T17:52:12.109Z,14.47
2018-01-08T17:54:39.818Z,14.20
2018-01-08T17:57:07.255Z,12.47
2018-01-08T17:59:34.713Z,15.60
2018-01-08T18:02:02.180Z,15.87
2018-01-08T18:04:29.637Z,13.67
2018-01-08T18:06:57.082Z,14.10
2018-01-08T18:09:24.540Z,13.20
2018-01-08T18:11:52.025Z,16.00
2018-01-08T18:14:19.483Z,13.80
2018-01-08T18:16:46.936Z,15.17
2018-01-08T18:19:14.372Z,16.90
2018-01-08T18:21:41.821Z,17.53
2018-01-08T18:24:09.265Z,17.90
2018-01-08T18:26:36.749Z,15.70
2018-01-08T18:29:04.223Z,13.67
2018-01-08T18:31:31.655Z,16.30
2018-01-08T18:33:59.388Z,16.13
2018-01-08T18:36:26.927Z,14.37
2018-01-08T18:38:54.368Z,17.07
2018-01-08T18:41:22.574Z,17.60
2018-01-08T18:43:50.005Z,17.10
2018-01-08T18:46:17.477Z,16.20
2018-01-08T18:48:45.662Z,14.77
2018-01-08T18:51:13.101Z,16.40
2018-01-08T18:53:40.533Z,15.47
2018-01-08T18:56:08.754Z,15.73
2018-01-08T18:58:36.184Z,17.50
2018-01-08T19:01:03.641Z,16.27
2018-01-08T19:03:31.090Z,19.00
2018-01-08T19:05:58.528Z,15.93
2018-01-08T19:08:25.988Z,17.97
2018-01-08T19:10:53.432Z,16.27
2018-01-08T19:13:20.872Z,15.10
2018-01-08T19:15:48.555Z,16.40
2018-01-08T19:18:15.992Z,17.87
2018-01-08T19:20:43.598Z,17.63
2018-01-08T19:23:11.295Z,15.67
2018-01-08T19:25:38.716Z,15.87
2018-01-08T19:28:06.946Z,17.07
2018-01-08T19:30:34.410Z,16.70
2018-01-08T19:33:01.872Z,17.43
2018-01-08T19:35:29.332Z,18.47
2018-01-08T19:37:56.799Z,15.53
2018-01-08T19:40:24.212Z,16.33
2018-01-08T19:42:51.667Z,15.80
2018-01-08T19:45:19.106Z,19.17
2018-01-08T19:47:46.552Z,17.70
2018-01-08T19:50:14.016Z,15.67
2018-01-08T19:52:41.467Z,15.80
2018-01-08T19:55:08.896Z,18.90
2018-01-08T19:57:36.348Z,16.73
2018-01-08T20:00:03.786Z,20.67
2018-01-08T20:02:31.244Z,17.60
2018-01-08T20:04:58.747Z,17.03
2018-01-08T20:07:26.979Z,18.40
2018-01-08T20:09:54.441Z,17.97
2018-01-08T20:12:21.885Z,17.77
2018-01-08T20:14:49.313Z,16.90
2018-01-08T20:17:16.765Z,16.87
2018-01-08T20:19:44.221Z,16.90
2018-01-08T20:22:11.678Z,18.73
2018-01-08T20:24:39.120Z,16.57
2018-01-08T20:27:07.432Z,17.13
2018-01-08T20:29:34.864Z,15.50
2018-01-08T20:32:02.313Z,19.40
2018-01-08T20:34:29.750Z,18.20
2018-01-08T20:36:57.195Z,19.23
2018-01-08T20:39:24.648Z,20.57
2018-01-08T20:41:52.096Z,18.33
2018-01-08T20:44:19.582Z,14.47
2018-01-08T20:46:47.049Z,14.17
2018-01-08T20:49:14.529Z,14.60
2018-01-08T20:51:41.973Z,15.33
2018-01-08T20:54:09.416Z,15.23
2018-01-08T20:56:36.863Z,17.30
2018-01-08T20:59:04.312Z,18.93
2018-01-08T21:01:31.759Z,15.87
2018-01-08T21:03:59.213Z,17.00
2018-01-08T21:06:26.650Z,13.83
2018-01-08T21:08:54.106Z,13.90
2018-01-08T21:11:21.558Z,14.40
2018-01-08T21:13:49.015Z,17.83
2018-01-08T21:16:16.443Z,17.13
2018-01-08T21:18:43.902Z,14.40
2018-01-08T21:21:12.105Z,12.03
2018-01-08T21:23:39.592Z,13.13
2018-01-08T21:26:07.033Z,17.10
2018-01-08T21:28:35.236Z,24.60
2018-01-08T21:31:02.830Z,51.17
2018-01-08T21:33:30.264Z,53.27
2018-01-08T21:35:57.684Z,20.03
2018-01-08T21:38:25.137Z,33.40
2018-01-08T21:40:52.598Z,21.40
2018-01-08T21:43:20.035Z,18.40
2018-01-08T21:45:47.519Z,20.33
2018-01-08T21:48:14.996Z,17.97
2018-01-08T21:50:42.432Z,18.33
2018-01-08T21:53:09.944Z,17.53
2018-01-08T21:55:37.398Z,19.90
2018-01-08T21:58:04.824Z,20.33
2018-01-08T22:00:32.280Z,21.10
2018-01-08T22:02:59.732Z,20.83
2018-01-08T22:05:27.228Z,23.83
2018-01-08T22:07:54.685Z,23.10
2018-01-08T22:10:22.112Z,17.53
2018-01-08T22:12:49.556Z,19.37
2018-01-08T22:15:17.052Z,21.27
2018-01-08T22:17:44.480Z,24.07
2018-01-08T22:20:11.926Z,20.87
2018-01-08T22:22:39.379Z,21.60
2018-01-08T22:25:06.832Z,20.50
2018-01-08T22:27:34.273Z,19.37
2018-01-08T22:30:01.730Z,22.50
2018-01-08T22:32:29.192Z,15.63
2018-01-08T22:34:56.649Z,14.90
2018-01-08T22:37:24.179Z,18.33
2018-01-08T22:39:51.625Z,15.80
2018-01-08T22:42:19.069Z,18.10
2018-01-08T22:44:46.503Z,18.37
2018-01-08T22:47:13.961Z,20.60
2018-01-08T22:49:41.403Z,16.93
2018-01-08T22:52:08.852Z,14.87
2018-01-08T22:54:36.305Z,18.40
2018-01-08T22:57:03.758Z,17.10
2018-01-08T22:59:31.303Z,25.70
2018-01-08T23:01:58.746Z,18.30
2018-01-08T23:04:26.184Z,20.90
2018-01-08T23:06:53.637Z,20.03
2018-01-08T23:09:21.072Z,19.80
2018-01-08T23:11:48.530Z,18.73
2018-01-08T23:14:15.984Z,17.60
2018-01-08T23:16:43.432Z,27.33
2018-01-08T23:19:10.888Z,20.97
2018-01-08T23:21:38.376Z,20.57
2018-01-08T23:24:05.828Z,18.50
2018-01-08T23:26:33.272Z,14.87
2018-01-08T23:29:00.712Z,15.07
2018-01-08T23:31:28.186Z,14.73
2018-01-08T23:33:55.631Z,25.63
2018-01-08T23:36:23.076Z,16.20
2018-01-08T23:38:50.589Z,18.47
2018-01-08T23:41:18.041Z,18.67
2018-01-08T23:43:45.508Z,18.87
2018-01-08T23:46:13.731Z,16.80
2018-01-08T23:48:41.172Z,20.20
2018-01-08T23:51:08.628Z,20.70
2018-01-08T23:53:36.068Z,16.10
2018-01-08T23:56:03.525Z,17.90
2018-01-08T23:58:30.984Z,15.50
